TimeCST,TemperatureF,Dew PointF,Humidity,Sea Level PressureIn,VisibilityMPH,Wind Direction,Wind SpeedMPH,Gust SpeedMPH,PrecipitationIn,Events,Conditions,WindDirDegrees,DateUTC
12:15 AM,36.5,18.5,48,30.04,10.0,WSW,12.7,-,N/A,,Clear,250,2013-01-13 06:15:00
12:35 AM,36.1,18.5,49,30.04,10.0,WSW,9.2,-,N/A,,Clear,250,2013-01-13 06:35:00
12:55 AM,34.3,19.4,54,30.04,10.0,WSW,8.1,-,N/A,,Clear,240,2013-01-13 06:55:00
1:15 AM,35.1,18.5,51,30.04,10.0,WSW,11.5,-,N/A,,Clear,250,2013-01-13 07:15:00
1:35 AM,33.8,19.2,55,30.05,10.0,West,9.2,-,N/A,,Clear,260,2013-01-13 07:35:00
1:55 AM,33.3,19.9,58,30.05,10.0,West,8.1,-,N/A,,Clear,260,2013-01-13 07:55:00
2:15 AM,32.9,19.4,58,30.06,10.0,WSW,10.4,-,N/A,,Clear,250,2013-01-13 08:15:00
2:35 AM,32.2,19.9,61,30.06,10.0,WSW,9.2,-,N/A,,Clear,250,2013-01-13 08:35:00
2:55 AM,31.6,20.3,63,30.06,10.0,WSW,9.2,-,N/A,,Clear,250,2013-01-13 08:55:00
3:15 AM,31.5,20.3,63,30.07,10.0,West,10.4,-,N/A,,Clear,270,2013-01-13 09:15:00
3:35 AM,30.4,20.3,66,30.09,10.0,West,10.4,-,N/A,,Clear,280,2013-01-13 09:35:00
3:55 AM,30.2,20.7,68,30.09,10.0,West,9.2,-,N/A,,Clear,280,2013-01-13 09:55:00
4:15 AM,30.7,20.1,65,30.09,10.0,WNW,6.9,-,N/A,,Clear,300,2013-01-13 10:15:00
4:35 AM,30.2,19.4,64,30.09,10.0,West,8.1,-,N/A,,Clear,270,2013-01-13 10:35:00
4:55 AM,29.5,19.4,66,30.09,10.0,West,9.2,-,N/A,,Clear,270,2013-01-13 10:55:00
5:15 AM,30.0,19.4,65,30.10,10.0,West,10.4,-,N/A,,Clear,280,2013-01-13 11:15:00
5:35 AM,29.5,18.5,64,30.10,10.0,West,8.1,-,N/A,,Clear,260,2013-01-13 11:35:00
5:55 AM,29.1,18.5,65,30.11,10.0,West,8.1,-,N/A,,Clear,270,2013-01-13 11:55:00
6:15 AM,28.4,18.9,67,30.12,10.0,West,8.1,-,N/A,,Clear,280,2013-01-13 12:15:00
6:35 AM,27.5,19.4,72,30.13,10.0,West,9.2,-,N/A,,Clear,270,2013-01-13 12:35:00
6:55 AM,28.0,18.7,68,30.15,10.0,NW,3.5,-,N/A,,Clear,320,2013-01-13 12:55:00
7:15 AM,26.8,18.9,72,30.17,10.0,North,4.6,-,N/A,,Clear,350,2013-01-13 13:15:00
7:35 AM,26.2,19.2,75,30.17,10.0,NW,3.5,-,N/A,,Clear,320,2013-01-13 13:35:00
7:55 AM,25.7,19.4,77,30.19,10.0,NW,4.6,-,N/A,,Clear,320,2013-01-13 13:55:00
8:15 AM,25.3,20.1,81,30.19,10.0,North,4.6,-,N/A,,Clear,360,2013-01-13 14:15:00
8:35 AM,27.1,20.3,75,30.19,10.0,NE,4.6,-,N/A,,Clear,50,2013-01-13 14:35:00
8:55 AM,27.5,21.4,78,30.20,10.0,ENE,6.9,-,N/A,,Clear,70,2013-01-13 14:55:00
9:15 AM,28.9,22.5,77,30.21,10.0,East,8.1,-,N/A,,Clear,80,2013-01-13 15:15:00
9:35 AM,29.3,22.8,77,30.23,10.0,ENE,6.9,-,N/A,,Clear,70,2013-01-13 15:35:00
9:55 AM,30.0,21.9,72,30.23,10.0,ENE,9.2,-,N/A,,Clear,60,2013-01-13 15:55:00
10:15 AM,30.2,21.6,70,30.23,10.0,ENE,8.1,-,N/A,,Clear,60,2013-01-13 16:15:00
10:35 AM,31.6,21.9,67,30.23,10.0,East,6.9,-,N/A,,Clear,80,2013-01-13 16:35:00
10:55 AM,31.6,21.7,67,30.22,10.0,East,8.1,-,N/A,,Clear,80,2013-01-13 16:55:00
11:15 AM,32.0,21.6,65,30.20,10.0,East,4.6,-,N/A,,Clear,80,2013-01-13 17:15:00
11:35 AM,32.5,21.9,65,30.20,10.0,ENE,4.6,-,N/A,,Clear,70,2013-01-13 17:35:00
11:55 AM,33.1,22.1,64,30.19,10.0,ESE,3.5,-,N/A,,Clear,110,2013-01-13 17:55:00
12:15 PM,33.6,22.5,64,30.18,10.0,Calm,Calm,-,N/A,,Clear,0,2013-01-13 18:15:00
12:35 PM,34.3,22.5,62,30.16,10.0,Calm,Calm,-,N/A,,Clear,0,2013-01-13 18:35:00
12:55 PM,34.9,22.8,61,30.15,10.0,SE,5.8,-,N/A,,Clear,130,2013-01-13 18:55:00
1:15 PM,35.6,23.5,62,30.14,10.0,ESE,5.8,-,N/A,,Clear,120,2013-01-13 19:15:00
1:35 PM,36.1,23.5,60,30.13,10.0,SSE,3.5,-,N/A,,Clear,160,2013-01-13 19:35:00
1:55 PM,36.9,23.7,59,30.11,10.0,ENE,4.6,-,N/A,,Clear,60,2013-01-13 19:55:00
2:15 PM,38.3,24.8,58,30.10,10.0,NE,4.6,-,N/A,,Clear,50,2013-01-13 20:15:00
2:35 PM,38.1,24.3,57,30.09,10.0,Calm,Calm,-,N/A,,Clear,0,2013-01-13 20:35:00
2:55 PM,39.7,23.4,52,30.09,10.0,ESE,4.6,-,N/A,,Clear,120,2013-01-13 20:55:00
3:15 PM,40.3,24.6,54,30.09,10.0,ENE,5.8,-,N/A,,Clear,70,2013-01-13 21:15:00
3:35 PM,40.3,23.4,51,30.07,10.0,ENE,4.6,-,N/A,,Clear,70,2013-01-13 21:35:00
3:55 PM,41.0,22.6,48,30.07,10.0,East,8.1,-,N/A,,Clear,80,2013-01-13 21:55:00
4:15 PM,41.4,21.7,46,30.07,10.0,East,5.8,-,N/A,,Clear,90,2013-01-13 22:15:00
4:35 PM,41.5,21.7,45,30.06,10.0,East,8.1,-,N/A,,Clear,80,2013-01-13 22:35:00
4:55 PM,41.5,21.9,46,30.06,10.0,East,9.2,-,N/A,,Clear,100,2013-01-13 22:55:00
5:15 PM,41.2,21.4,45,30.06,10.0,East,9.2,-,N/A,,Clear,80,2013-01-13 23:15:00
5:35 PM,41.0,21.4,46,30.07,10.0,East,9.2,-,N/A,,Clear,80,2013-01-13 23:35:00
5:55 PM,39.9,22.3,49,30.07,10.0,East,6.9,-,N/A,,Clear,80,2013-01-13 23:55:00
6:15 PM,37.6,23.7,57,30.07,10.0,East,6.9,-,N/A,,Clear,90,2013-01-14 00:15:00
6:35 PM,35.4,24.8,65,30.07,10.0,East,5.8,-,N/A,,Clear,90,2013-01-14 00:35:00
6:55 PM,33.8,25.0,70,30.07,10.0,East,5.8,-,N/A,,Clear,80,2013-01-14 00:55:00
7:15 PM,32.9,24.8,72,30.07,10.0,East,6.9,-,N/A,,Clear,90,2013-01-14 01:15:00
7:35 PM,32.0,24.6,74,30.08,10.0,East,6.9,-,N/A,,Clear,80,2013-01-14 01:35:00
7:55 PM,32.0,24.8,75,30.08,10.0,ENE,6.9,-,N/A,,Clear,70,2013-01-14 01:55:00
8:15 PM,32.0,24.8,75,30.09,10.0,ENE,8.1,-,N/A,,Clear,70,2013-01-14 02:15:00
8:35 PM,32.0,25.3,76,30.09,10.0,ENE,8.1,-,N/A,,Clear,60,2013-01-14 02:35:00
8:55 PM,31.8,25.0,76,30.09,10.0,ENE,6.9,-,N/A,,Clear,70,2013-01-14 02:55:00
9:15 PM,31.3,25.2,78,30.10,10.0,ENE,5.8,-,N/A,,Clear,60,2013-01-14 03:15:00
9:35 PM,30.9,25.3,80,30.11,10.0,NE,4.6,-,N/A,,Clear,40,2013-01-14 03:35:00
9:55 PM,31.1,25.3,79,30.11,10.0,NE,5.8,-,N/A,,Clear,40,2013-01-14 03:55:00
10:15 PM,30.9,24.8,78,30.10,10.0,NE,8.1,-,N/A,,Clear,50,2013-01-14 04:15:00
10:35 PM,30.2,25.2,82,30.11,10.0,NNE,5.8,-,N/A,,Clear,30,2013-01-14 04:35:00
10:55 PM,30.4,24.6,79,30.11,10.0,NE,8.1,-,N/A,,Clear,40,2013-01-14 04:55:00
11:35 PM,30.2,23.9,77,30.12,10.0,NE,8.1,-,N/A,,Clear,50,2013-01-14 05:35:00
11:55 PM,30.2,23.9,77,30.12,10.0,NE,10.4,-,N/A,,Clear,50,2013-01-14 05:55:00